Time;durP1;ratioP1;P1;durP2;ratioP2;P2;SDS_P1;SDS_P2;PMS_P1;PMS_P2;Temp;Humidity;BMP_temperature;BMP_pressure;BME280_temperature;BME280_humidity;BME280_pressure;Samples;Min_cycle;Max_cycle;Signal;HPM_P1;HPM_P2
2023/12/09 00:00:11;;;;;;;;;;;17.90;59.70;;;;;;7324185;19;10640;-61
2023/12/09 00:02:40;;;;;;;;;;;17.90;59.60;;;;;;7323047;19;9622;-61
2023/12/09 00:05:10;;;;;;;;;;;17.90;59.70;;;;;;7324647;19;9152;-61
2023/12/09 00:07:41;;;;;;;;;;;17.90;59.60;;;;;;7322293;19;9229;-61
2023/12/09 00:10:11;;;;;;;;;;;18.00;59.50;;;;;;7323796;19;9217;-61
2023/12/09 00:12:40;;;;;;;;;;;18.00;59.40;;;;;;7323303;19;9294;-61
2023/12/09 00:15:09;;;;;;;;;;;18.10;59.40;;;;;;7323095;19;10840;-61
2023/12/09 00:17:38;;;;;;;;;;;18.10;59.30;;;;;;7322571;19;9798;-61
2023/12/09 00:20:09;;;;;;;;;;;18.20;59.20;;;;;;7323799;19;9580;-61
2023/12/09 00:22:41;;;;;;;;;;;18.30;59.10;;;;;;7328300;19;9679;-62
2023/12/09 00:25:10;;;;;;;;;;;18.30;59.00;;;;;;7328212;19;11715;-61
2023/12/09 00:27:40;;;;;;;;;;;18.40;58.90;;;;;;7330251;19;9558;-61
2023/12/09 00:30:10;;;;;;;;;;;18.50;58.90;;;;;;7329955;19;9227;-62
2023/12/09 00:32:39;;;;;;;;;;;18.50;58.80;;;;;;7330394;19;9191;-62
2023/12/09 00:35:10;;;;;;;;;;;18.60;58.70;;;;;;7329012;19;9450;-62
2023/12/09 00:37:42;;;;;;;;;;;18.70;58.70;;;;;;7329841;19;9497;-62
2023/12/09 00:40:12;;;;;;;;;;;18.70;58.60;;;;;;7329339;19;10362;-62
2023/12/09 00:42:41;;;;;;;;;;;18.80;58.50;;;;;;7329895;19;10463;-62
2023/12/09 00:45:11;;;;;;;;;;;18.80;58.40;;;;;;7329260;19;9228;-62
2023/12/09 00:47:40;;;;;;;;;;;18.90;58.40;;;;;;7329251;19;9233;-62
2023/12/09 00:50:10;;;;;;;;;;;18.90;58.30;;;;;;7328481;19;9189;-62
2023/12/09 00:52:42;;;;;;;;;;;19.00;58.20;;;;;;7329127;19;11192;-62
2023/12/09 00:55:11;;;;;;;;;;;18.90;58.20;;;;;;7329164;19;9437;-62
2023/12/09 00:57:40;;;;;;;;;;;18.90;58.10;;;;;;7328558;19;9473;-62
2023/12/09 01:00:10;;;;;;;;;;;19.00;58.10;;;;;;7329168;19;10760;-62
2023/12/09 01:02:39;;;;;;;;;;;18.90;58.00;;;;;;7328529;19;9582;-62
2023/12/09 01:05:09;;;;;;;;;;;19.00;58.10;;;;;;7327850;19;9441;-62
2023/12/09 01:08:00;;;;;;;;;;;18.90;58.10;;;;;;7326062;19;9520;-62
2023/12/09 01:10:29;;;;;;;;;;;18.90;58.00;;;;;;7328798;19;9127;-62
2023/12/09 01:12:58;;;;;;;;;;;18.90;58.00;;;;;;7328924;19;9197;-63
2023/12/09 01:15:27;;;;;;;;;;;18.80;58.00;;;;;;7328638;19;9206;-62
2023/12/09 01:17:56;;;;;;;;;;;18.80;58.10;;;;;;7328823;19;9233;-62
2023/12/09 01:20:26;;;;;;;;;;;18.80;58.20;;;;;;7327722;19;9190;-62
2023/12/09 01:22:54;;;;;;;;;;;18.70;58.20;;;;;;7328548;19;9478;-62
2023/12/09 01:25:26;;;;;;;;;;;18.70;58.20;;;;;;7327578;19;9225;-62
2023/12/09 01:27:55;;;;;;;;;;;18.70;58.30;;;;;;7328385;19;9606;-62
2023/12/09 01:30:24;;;;;;;;;;;18.70;59.10;;;;;;7327313;19;9435;-62
2023/12/09 01:32:53;;;;;;;;;;;18.70;58.40;;;;;;7328580;19;9237;-62
2023/12/09 01:35:23;;;;;;;;;;;18.60;58.40;;;;;;7327661;19;11501;-62
2023/12/09 01:37:52;;;;;;;;;;;18.50;58.40;;;;;;7327885;19;9473;-62
2023/12/09 01:40:21;;;;;;;;;;;18.60;58.60;;;;;;7328243;19;9312;-61
2023/12/09 01:42:53;;;;;;;;;;;18.50;58.70;;;;;;7327803;19;9300;-62
2023/12/09 01:45:23;;;;;;;;;;;18.50;58.60;;;;;;7328114;19;9459;-62
2023/12/09 01:47:52;;;;;;;;;;;18.50;58.70;;;;;;7328788;19;9198;-62
2023/12/09 01:50:21;;;;;;;;;;;18.40;58.80;;;;;;7327857;19;9127;-62
2023/12/09 01:52:50;;;;;;;;;;;18.40;58.80;;;;;;7327568;19;9548;-62
2023/12/09 01:55:20;;;;;;;;;;;18.30;58.80;;;;;;7327991;19;9193;-62
2023/12/09 01:57:51;;;;;;;;;;;18.30;58.90;;;;;;7326756;19;9457;-62
2023/12/09 02:00:21;;;;;;;;;;;18.30;58.90;;;;;;7328506;19;11426;-62
2023/12/09 02:02:50;;;;;;;;;;;18.30;59.00;;;;;;7326761;19;9197;-62
2023/12/09 02:05:20;;;;;;;;;;;18.20;58.90;;;;;;7328162;19;9449;-63
2023/12/09 02:07:48;;;;;;;;;;;18.20;59.00;;;;;;7326944;19;9525;-62
2023/12/09 02:10:19;;;;;;;;;;;18.20;59.10;;;;;;7327849;19;11000;-62
2023/12/09 02:13:20;;;;;;;;;;;18.20;59.00;;;;;;7325883;19;9226;-62
2023/12/09 02:16:00;;;;;;;;;;;18.20;59.10;;;;;;7326194;19;9210;-62
2023/12/09 02:18:33;;;;;;;;;;;18.20;59.10;;;;;;7327114;19;9568;-62
2023/12/09 02:21:02;;;;;;;;;;;18.20;59.10;;;;;;7324347;19;9504;-62
2023/12/09 02:23:34;;;;;;;;;;;18.10;59.10;;;;;;7326850;19;10565;-62
2023/12/09 02:26:13;;;;;;;;;;;18.20;59.20;;;;;;7325609;19;9292;-62
2023/12/09 02:28:50;;;;;;;;;;;18.10;59.20;;;;;;7326558;19;9482;-62
2023/12/09 02:31:26;;;;;;;;;;;18.10;59.20;;;;;;7326712;19;9539;-62
2023/12/09 02:33:57;;;;;;;;;;;18.10;59.20;;;;;;7327015;19;9381;-62
2023/12/09 02:36:30;;;;;;;;;;;18.10;59.20;;;;;;7326206;19;9445;-62
2023/12/09 02:39:04;;;;;;;;;;;18.10;59.30;;;;;;7326099;19;9178;-62
2023/12/09 02:41:35;;;;;;;;;;;18.00;59.20;;;;;;7325587;19;9199;-62
2023/12/09 02:44:09;;;;;;;;;;;18.00;59.30;;;;;;7325092;19;9706;-62
2023/12/09 02:46:38;;;;;;;;;;;18.00;59.30;;;;;;7326029;19;9409;-62
2023/12/09 02:49:08;;;;;;;;;;;18.00;59.40;;;;;;7325704;19;9437;-62
2023/12/09 02:51:38;;;;;;;;;;;18.00;59.30;;;;;;7326785;19;9633;-62
2023/12/09 02:54:10;;;;;;;;;;;18.00;59.90;;;;;;7325065;19;9146;-62
2023/12/09 02:56:40;;;;;;;;;;;18.00;59.40;;;;;;7325154;19;9031;-62
2023/12/09 02:59:09;;;;;;;;;;;18.00;59.40;;;;;;7326057;19;10384;-62
2023/12/09 03:01:38;;;;;;;;;;;17.90;59.40;;;;;;7324468;19;9512;-62
2023/12/09 03:04:07;;;;;;;;;;;17.90;59.40;;;;;;7326210;19;9433;-62
2023/12/09 03:06:36;;;;;;;;;;;17.90;59.40;;;;;;7324400;19;9470;-62
2023/12/09 03:09:06;;;;;;;;;;;17.90;59.40;;;;;;7326467;19;9481;-62
2023/12/09 03:11:38;;;;;;;;;;;17.90;59.40;;;;;;7324789;19;9245;-62
2023/12/09 03:14:07;;;;;;;;;;;17.90;59.40;;;;;;7325159;19;9446;-62
2023/12/09 03:16:39;;;;;;;;;;;17.90;59.40;;;;;;7324837;19;9391;-62
2023/12/09 03:19:08;;;;;;;;;;;17.90;59.40;;;;;;7325536;19;9492;-62
2023/12/09 03:21:37;;;;;;;;;;;18.00;59.30;;;;;;7325140;19;9625;-62
2023/12/09 03:24:06;;;;;;;;;;;18.00;59.20;;;;;;7324719;19;9140;-62
2023/12/09 03:26:38;;;;;;;;;;;18.10;59.20;;;;;;7325176;19;9537;-62
2023/12/09 03:29:07;;;;;;;;;;;18.10;59.10;;;;;;7324273;19;9617;-62
2023/12/09 03:31:35;;;;;;;;;;;18.20;59.00;;;;;;7324486;19;9203;-62
2023/12/09 03:34:04;;;;;;;;;;;18.30;58.90;;;;;;7324147;19;9554;-62
2023/12/09 03:36:34;;;;;;;;;;;18.30;58.80;;;;;;7325107;19;9480;-62
2023/12/09 03:39:03;;;;;;;;;;;18.40;58.70;;;;;;7323806;19;9497;-62
2023/12/09 03:41:32;;;;;;;;;;;18.40;58.60;;;;;;7324365;19;9531;-62
2023/12/09 03:44:04;;;;;;;;;;;18.50;58.60;;;;;;7323961;19;9565;-60
2023/12/09 03:46:33;;;;;;;;;;;18.60;58.50;;;;;;7324637;19;10583;-61
2023/12/09 03:49:02;;;;;;;;;;;18.70;58.50;;;;;;7323944;19;10732;-60
2023/12/09 03:51:31;;;;;;;;;;;18.70;58.40;;;;;;7324629;19;9182;-60
2023/12/09 03:53:59;;;;;;;;;;;18.80;58.40;;;;;;7324074;19;9221;-60
2023/12/09 03:56:28;;;;;;;;;;;18.90;58.30;;;;;;7325983;19;10336;-60
2023/12/09 03:58:57;;;;;;;;;;;18.90;58.20;;;;;;7330105;19;9251;-60
2023/12/09 04:01:29;;;;;;;;;;;18.90;58.20;;;;;;7330665;19;9166;-60
2023/12/09 04:04:01;;;;;;;;;;;18.90;58.10;;;;;;7330854;19;9352;-60
2023/12/09 04:06:32;;;;;;;;;;;18.90;58.80;;;;;;7329394;19;9122;-60
2023/12/09 04:09:01;;;;;;;;;;;19.00;58.00;;;;;;7330145;19;9563;-60
2023/12/09 04:11:29;;;;;;;;;;;18.90;57.90;;;;;;7330189;19;9186;-60
2023/12/09 04:13:58;;;;;;;;;;;18.90;58.00;;;;;;7329492;19;9646;-60
2023/12/09 04:16:50;;;;;;;;;;;18.90;58.00;;;;;;7328680;19;10493;-60
2023/12/09 04:19:19;;;;;;;;;;;18.90;58.00;;;;;;7329799;19;9466;-60
2023/12/09 04:21:48;;;;;;;;;;;18.90;57.90;;;;;;7329735;19;9246;-60
2023/12/09 04:24:17;;;;;;;;;;;18.90;57.90;;;;;;7329633;19;9323;-60
2023/12/09 04:26:46;;;;;;;;;;;18.90;58.00;;;;;;7329915;19;9232;-60
2023/12/09 04:29:15;;;;;;;;;;;18.80;58.00;;;;;;7328927;19;9519;-60
2023/12/09 04:31:45;;;;;;;;;;;18.80;58.00;;;;;;7329915;19;9259;-60
2023/12/09 04:34:16;;;;;;;;;;;18.80;58.10;;;;;;7328938;19;9232;-60
2023/12/09 04:36:46;;;;;;;;;;;18.70;58.10;;;;;;7330228;19;10293;-60
2023/12/09 04:39:15;;;;;;;;;;;18.70;58.20;;;;;;7329094;19;9170;-60
2023/12/09 04:41:44;;;;;;;;;;;18.70;58.20;;;;;;7329712;19;11238;-60
2023/12/09 04:44:12;;;;;;;;;;;18.70;58.30;;;;;;7328668;19;9379;-60
2023/12/09 04:46:41;;;;;;;;;;;18.60;58.20;;;;;;7330287;19;9497;-60
2023/12/09 04:49:10;;;;;;;;;;;18.60;58.30;;;;;;7329109;19;9281;-60
2023/12/09 04:51:43;;;;;;;;;;;18.50;58.40;;;;;;7329504;19;9542;-60
2023/12/09 04:54:12;;;;;;;;;;;18.50;58.40;;;;;;7329212;19;9593;-60
2023/12/09 04:56:41;;;;;;;;;;;18.50;58.50;;;;;;7328550;19;9458;-60
2023/12/09 04:59:10;;;;;;;;;;;18.40;58.60;;;;;;7328420;19;9258;-60
2023/12/09 05:01:39;;;;;;;;;;;18.40;58.60;;;;;;7328400;19;9419;-60
2023/12/09 05:04:08;;;;;;;;;;;18.40;58.70;;;;;;7329167;19;9647;-61
2023/12/09 05:06:37;;;;;;;;;;;18.40;58.80;;;;;;7327722;19;10630;-60
2023/12/09 05:09:10;;;;;;;;;;;18.40;58.90;;;;;;7329004;19;9267;-60
2023/12/09 05:11:39;;;;;;;;;;;18.30;58.80;;;;;;7328225;19;9213;-60
2023/12/09 05:14:08;;;;;;;;;;;18.30;58.90;;;;;;7328185;19;9544;-60
2023/12/09 05:16:37;;;;;;;;;;;18.30;58.90;;;;;;7328743;19;9197;-61
2023/12/09 05:19:08;;;;;;;;;;;18.20;59.00;;;;;;7329328;19;9417;-61
2023/12/09 05:21:37;;;;;;;;;;;18.20;59.00;;;;;;7328393;19;9488;-61
2023/12/09 05:24:09;;;;;;;;;;;18.20;59.00;;;;;;7328940;19;9615;-61
2023/12/09 05:26:38;;;;;;;;;;;18.20;59.10;;;;;;7328602;19;9558;-62
2023/12/09 05:29:07;;;;;;;;;;;18.20;59.10;;;;;;7328332;19;9663;-62
2023/12/09 05:31:36;;;;;;;;;;;18.10;59.10;;;;;;7328530;19;9603;-62
2023/12/09 05:34:05;;;;;;;;;;;18.10;59.10;;;;;;7328429;19;9470;-62
2023/12/09 05:36:33;;;;;;;;;;;18.10;59.10;;;;;;7328343;19;9198;-62
2023/12/09 05:39:26;;;;;;;;;;;18.10;59.20;;;;;;7326014;19;10644;-62
2023/12/09 05:41:54;;;;;;;;;;;18.10;59.20;;;;;;7328267;19;9497;-62
2023/12/09 05:44:24;;;;;;;;;;;18.10;59.20;;;;;;7328080;19;9526;-62
2023/12/09 05:46:53;;;;;;;;;;;18.10;59.20;;;;;;7327888;19;9463;-62
2023/12/09 05:49:22;;;;;;;;;;;18.10;59.30;;;;;;7327787;19;9276;-62
2023/12/09 05:51:51;;;;;;;;;;;18.00;59.10;;;;;;7327505;19;9320;-62
2023/12/09 05:54:20;;;;;;;;;;;18.00;59.30;;;;;;7328059;19;9461;-62
2023/12/09 05:56:53;;;;;;;;;;;18.00;59.30;;;;;;7326278;19;9478;-62
2023/12/09 05:59:22;;;;;;;;;;;18.00;59.30;;;;;;7327521;19;9308;-62
2023/12/09 06:01:51;;;;;;;;;;;18.00;59.30;;;;;;7327480;19;9560;-63
2023/12/09 06:04:20;;;;;;;;;;;18.00;59.30;;;;;;7327790;19;9168;-62
2023/12/09 06:06:49;;;;;;;;;;;17.90;59.20;;;;;;7326455;19;9295;-62
2023/12/09 06:09:19;;;;;;;;;;;17.90;59.30;;;;;;7326683;19;9341;-60
2023/12/09 06:11:48;;;;;;;;;;;17.90;59.40;;;;;;7327005;19;9461;-60
2023/12/09 06:14:19;;;;;;;;;;;17.90;59.30;;;;;;7326394;19;9426;-60
2023/12/09 06:16:48;;;;;;;;;;;17.90;59.40;;;;;;7327754;19;9602;-62
2023/12/09 06:19:17;;;;;;;;;;;17.90;59.40;;;;;;7324244;19;9387;-59
2023/12/09 06:21:46;;;;;;;;;;;17.90;59.40;;;;;;7327188;19;9476;-59
2023/12/09 06:24:16;;;;;;;;;;;17.90;59.30;;;;;;7326277;19;9210;-60
2023/12/09 06:26:45;;;;;;;;;;;17.90;59.20;;;;;;7327070;19;9226;-60
2023/12/09 06:29:16;;;;;;;;;;;18.00;59.20;;;;;;7326283;19;9597;-60
2023/12/09 06:31:47;;;;;;;;;;;18.00;59.10;;;;;;7326377;19;9482;-60
2023/12/09 06:34:16;;;;;;;;;;;18.10;59.20;;;;;;7326523;19;9441;-60
2023/12/09 06:36:45;;;;;;;;;;;18.20;59.10;;;;;;7326888;19;9204;-60
2023/12/09 06:39:15;;;;;;;;;;;18.20;58.90;;;;;;7326135;19;9246;-59
2023/12/09 06:42:05;;;;;;;;;;;18.30;58.80;;;;;;7325199;19;9240;-60
2023/12/09 06:44:34;;;;;;;;;;;18.30;58.70;;;;;;7326784;19;9213;-62
2023/12/09 06:47:06;;;;;;;;;;;18.40;58.70;;;;;;7325460;19;9257;-60
2023/12/09 06:49:35;;;;;;;;;;;18.50;58.60;;;;;;7326277;19;9670;-60
2023/12/09 06:52:04;;;;;;;;;;;18.50;58.50;;;;;;7326022;19;9291;-60
2023/12/09 06:54:33;;;;;;;;;;;18.60;58.40;;;;;;7326376;19;9210;-60
2023/12/09 06:57:02;;;;;;;;;;;18.70;58.40;;;;;;7325639;19;9665;-62
2023/12/09 06:59:31;;;;;;;;;;;18.70;58.30;;;;;;7325355;19;10787;-60
2023/12/09 07:02:00;;;;;;;;;;;18.80;58.30;;;;;;7325838;19;9175;-60
2023/12/09 07:04:33;;;;;;;;;;;18.80;58.30;;;;;;7325277;19;9374;-60
2023/12/09 07:07:02;;;;;;;;;;;18.90;58.20;;;;;;7325809;19;9478;-60
2023/12/09 07:09:51;;;;;;;;;;;18.90;58.10;;;;;;7323133;19;9246;-60
2023/12/09 07:12:20;;;;;;;;;;;18.90;58.00;;;;;;7325619;19;9509;-61
2023/12/09 07:14:49;;;;;;;;;;;18.90;58.00;;;;;;7324559;19;9485;-61
2023/12/09 07:17:18;;;;;;;;;;;18.90;57.90;;;;;;7325729;19;10663;-61
2023/12/09 07:19:52;;;;;;;;;;;18.90;57.90;;;;;;7325461;19;10394;-61
2023/12/09 07:22:21;;;;;;;;;;;18.90;57.90;;;;;;7323463;19;9449;-61
2023/12/09 07:24:50;;;;;;;;;;;18.90;57.90;;;;;;7325369;19;9166;-61
2023/12/09 07:27:19;;;;;;;;;;;18.90;58.00;;;;;;7324613;19;9496;-61
2023/12/09 07:29:48;;;;;;;;;;;18.80;57.90;;;;;;7325252;19;9691;-61
2023/12/09 07:32:18;;;;;;;;;;;18.90;58.00;;;;;;7331007;19;9449;-61
2023/12/09 07:34:49;;;;;;;;;;;18.80;58.00;;;;;;7331122;19;9646;-61
2023/12/09 07:37:18;;;;;;;;;;;18.80;58.00;;;;;;7329954;19;9249;-61
2023/12/09 07:39:48;;;;;;;;;;;18.70;58.00;;;;;;7330473;19;9110;-61
2023/12/09 07:42:17;;;;;;;;;;;18.70;58.10;;;;;;7330208;19;9435;-61
2023/12/09 07:44:45;;;;;;;;;;;18.70;58.20;;;;;;7331269;19;9178;-61
2023/12/09 07:47:14;;;;;;;;;;;18.70;58.30;;;;;;7330011;19;9211;-61
2023/12/09 07:49:44;;;;;;;;;;;18.60;58.20;;;;;;7330929;19;9000;-61
2023/12/09 07:52:16;;;;;;;;;;;18.60;58.20;;;;;;7329221;19;9471;-61
2023/12/09 07:54:45;;;;;;;;;;;18.50;58.20;;;;;;7330686;19;10728;-61
2023/12/09 07:57:14;;;;;;;;;;;18.50;58.30;;;;;;7329164;19;10608;-61
2023/12/09 07:59:43;;;;;;;;;;;18.50;58.40;;;;;;7329899;19;10405;-61
2023/12/09 08:02:32;;;;;;;;;;;18.50;58.50;;;;;;7328797;19;10136;-61
2023/12/09 08:05:00;;;;;;;;;;;18.40;58.50;;;;;;7329662;19;9268;-61
2023/12/09 08:07:32;;;;;;;;;;;18.40;58.60;;;;;;7329614;19;9641;-61
2023/12/09 08:10:01;;;;;;;;;;;18.40;59.30;;;;;;7329404;19;9591;-61
2023/12/09 08:12:31;;;;;;;;;;;18.30;58.70;;;;;;7330113;19;9500;-61
2023/12/09 08:15:00;;;;;;;;;;;18.30;58.70;;;;;;7328998;19;9449;-61
2023/12/09 08:17:29;;;;;;;;;;;18.30;58.80;;;;;;7329813;19;10643;-61
2023/12/09 08:19:58;;;;;;;;;;;18.30;58.90;;;;;;7329175;19;9459;-62
2023/12/09 08:22:27;;;;;;;;;;;18.20;58.90;;;;;;7328752;19;9519;-62
2023/12/09 08:24:58;;;;;;;;;;;18.20;59.00;;;;;;7330365;19;9255;-62
2023/12/09 08:27:28;;;;;;;;;;;18.20;59.00;;;;;;7330000;19;9742;-62
2023/12/09 08:29:57;;;;;;;;;;;18.10;59.00;;;;;;7329068;19;9462;-61
2023/12/09 08:32:26;;;;;;;;;;;18.20;59.10;;;;;;7328866;19;9449;-61
2023/12/09 08:34:55;;;;;;;;;;;18.10;59.10;;;;;;7329227;19;10647;-62
2023/12/09 08:37:25;;;;;;;;;;;18.10;59.20;;;;;;7328513;19;9221;-62
2023/12/09 08:40:05;;;;;;;;;;;18.10;59.10;;;;;;7329398;19;9476;-62
2023/12/09 08:42:34;;;;;;;;;;;18.10;59.20;;;;;;7326992;19;9405;-61
2023/12/09 08:45:03;;;;;;;;;;;18.10;59.20;;;;;;7329281;19;9469;-61
2023/12/09 08:47:52;;;;;;;;;;;18.00;59.10;;;;;;7327767;19;9509;-62
2023/12/09 08:50:21;;;;;;;;;;;18.00;59.20;;;;;;7327629;19;9526;-61
2023/12/09 08:52:50;;;;;;;;;;;18.00;59.20;;;;;;7329385;19;9340;-61
2023/12/09 08:55:22;;;;;;;;;;;18.00;59.10;;;;;;7327935;19;9178;-62
2023/12/09 08:57:51;;;;;;;;;;;18.00;59.20;;;;;;7328665;19;9464;-61
2023/12/09 09:00:25;;;;;;;;;;;18.00;59.20;;;;;;7327781;19;9667;-62
2023/12/09 09:02:55;;;;;;;;;;;18.00;59.20;;;;;;7329241;19;9229;-61
2023/12/09 09:05:24;;;;;;;;;;;18.00;59.20;;;;;;7327295;19;9529;-62
2023/12/09 09:07:53;;;;;;;;;;;18.00;59.20;;;;;;7328430;19;10188;-62
2023/12/09 09:10:25;;;;;;;;;;;18.00;59.20;;;;;;7328594;19;9233;-62
2023/12/09 09:12:54;;;;;;;;;;;17.90;59.20;;;;;;7328037;19;10184;-62
2023/12/09 09:15:20;;;;;;;;;;;17.90;59.20;;;;;;7328234;19;9173;-62
2023/12/09 09:17:50;;;;;;;;;;;17.90;59.20;;;;;;7327409;19;9223;-62
2023/12/09 09:20:19;;;;;;;;;;;18.00;59.70;;;;;;7328076;19;9580;-62
2023/12/09 09:22:49;;;;;;;;;;;18.00;59.10;;;;;;7327143;19;9648;-62
2023/12/09 09:25:18;;;;;;;;;;;18.00;59.10;;;;;;7328228;19;9459;-62
2023/12/09 09:27:50;;;;;;;;;;;18.00;59.10;;;;;;7327055;19;9393;-62
2023/12/09 09:30:20;;;;;;;;;;;18.10;59.10;;;;;;7328391;19;9728;-61
2023/12/09 09:32:49;;;;;;;;;;;18.20;59.10;;;;;;7326573;19;9294;-61
2023/12/09 09:35:19;;;;;;;;;;;18.20;58.90;;;;;;7328233;19;9290;-62
2023/12/09 09:38:08;;;;;;;;;;;18.30;58.90;;;;;;7326244;19;9509;-61
2023/12/09 09:40:38;;;;;;;;;;;18.30;58.70;;;;;;7326483;19;9501;-61
2023/12/09 09:43:15;;;;;;;;;;;18.40;58.60;;;;;;7327637;19;9529;-61
2023/12/09 09:45:48;;;;;;;;;;;18.50;58.60;;;;;;7326721;19;9225;-61
2023/12/09 09:48:20;;;;;;;;;;;18.60;58.60;;;;;;7327367;19;9467;-61
2023/12/09 09:50:53;;;;;;;;;;;18.60;59.20;;;;;;7326885;19;9261;-61
2023/12/09 09:53:29;;;;;;;;;;;18.70;58.40;;;;;;7325468;19;9190;-61
2023/12/09 09:55:59;;;;;;;;;;;18.70;58.40;;;;;;7327134;19;10206;-61
2023/12/09 09:58:32;;;;;;;;;;;18.80;58.30;;;;;;7326369;19;9477;-61
2023/12/09 10:01:02;;;;;;;;;;;18.90;58.20;;;;;;7327357;19;9460;-61
2023/12/09 10:03:31;;;;;;;;;;;18.90;58.20;;;;;;7326112;19;9484;-61
2023/12/09 10:06:01;;;;;;;;;;;18.90;58.10;;;;;;7326800;19;9265;-61
2023/12/09 10:08:31;;;;;;;;;;;18.90;58.00;;;;;;7326371;19;9467;-61
2023/12/09 10:11:00;;;;;;;;;;;19.00;58.10;;;;;;7326288;19;9439;-61
2023/12/09 10:13:32;;;;;;;;;;;19.00;58.00;;;;;;7326172;19;9514;-61
2023/12/09 10:16:01;;;;;;;;;;;19.00;58.00;;;;;;7326214;19;9555;-61
2023/12/09 10:18:32;;;;;;;;;;;19.00;58.00;;;;;;7326987;19;9218;-61
2023/12/09 10:21:01;;;;;;;;;;;18.90;57.90;;;;;;7326091;19;9257;-62
2023/12/09 10:23:30;;;;;;;;;;;19.00;57.90;;;;;;7326249;19;9531;-61
2023/12/09 10:26:00;;;;;;;;;;;19.00;57.90;;;;;;7326219;19;9287;-61
2023/12/09 10:28:32;;;;;;;;;;;18.90;57.90;;;;;;7326573;19;11331;-61
2023/12/09 10:31:03;;;;;;;;;;;18.90;57.90;;;;;;7325520;19;9336;-61
2023/12/09 10:33:33;;;;;;;;;;;18.90;58.00;;;;;;7326534;19;9225;-61
2023/12/09 10:36:02;;;;;;;;;;;18.90;58.00;;;;;;7325339;19;9243;-61
2023/12/09 10:38:32;;;;;;;;;;;18.80;58.00;;;;;;7326746;19;9237;-61
2023/12/09 10:41:02;;;;;;;;;;;18.90;58.10;;;;;;7325451;19;9420;-61
2023/12/09 10:43:34;;;;;;;;;;;18.80;58.10;;;;;;7326254;19;9290;-61
2023/12/09 10:46:02;;;;;;;;;;;18.70;58.80;;;;;;7325292;19;9417;-61
2023/12/09 10:48:32;;;;;;;;;;;18.70;58.90;;;;;;7325753;19;9233;-61
2023/12/09 10:51:01;;;;;;;;;;;18.70;58.30;;;;;;7325761;19;9462;-61
2023/12/09 10:53:30;;;;;;;;;;;18.70;58.30;;;;;;7325383;19;9490;-61
2023/12/09 10:56:00;;;;;;;;;;;18.70;58.30;;;;;;7325621;19;9270;-61
2023/12/09 10:58:29;;;;;;;;;;;18.60;58.40;;;;;;7324797;19;9678;-61
2023/12/09 11:01:03;;;;;;;;;;;18.60;58.40;;;;;;7325396;19;9110;-61
2023/12/09 11:03:35;;;;;;;;;;;18.60;58.50;;;;;;7324326;19;9662;-62
2023/12/09 11:06:09;;;;;;;;;;;18.60;58.60;;;;;;7324415;19;9314;-61
2023/12/09 11:08:40;;;;;;;;;;;18.60;58.70;;;;;;7325711;19;9224;-61
2023/12/09 11:11:10;;;;;;;;;;;18.50;58.60;;;;;;7324894;19;9754;-61
2023/12/09 11:13:44;;;;;;;;;;;18.50;58.70;;;;;;7325071;19;9315;-61
2023/12/09 11:16:21;;;;;;;;;;;18.50;58.80;;;;;;7324346;19;9206;-61
2023/12/09 11:18:52;;;;;;;;;;;18.50;58.80;;;;;;7325311;19;9238;-61
2023/12/09 11:21:21;;;;;;;;;;;18.40;58.80;;;;;;7324453;19;10826;-61
2023/12/09 11:23:51;;;;;;;;;;;18.50;58.90;;;;;;7324575;19;9589;-61
2023/12/09 11:26:22;;;;;;;;;;;18.50;58.90;;;;;;7324267;19;9210;-61
2023/12/09 11:29:03;;;;;;;;;;;18.40;58.80;;;;;;7324536;19;9192;-61
2023/12/09 11:31:40;;;;;;;;;;;18.40;58.90;;;;;;7324460;19;9449;-61
2023/12/09 11:34:11;;;;;;;;;;;18.40;58.90;;;;;;7324056;19;9590;-61
2023/12/09 11:36:41;;;;;;;;;;;18.40;58.90;;;;;;7324054;19;9201;-61
2023/12/09 11:39:14;;;;;;;;;;;18.30;58.90;;;;;;7323542;19;11995;-61
2023/12/09 11:41:44;;;;;;;;;;;18.30;58.90;;;;;;7323825;19;9638;-61
2023/12/09 11:44:14;;;;;;;;;;;18.30;59.00;;;;;;7323517;19;9143;-61
2023/12/09 11:46:46;;;;;;;;;;;18.30;59.00;;;;;;7323799;19;9497;-62
2023/12/09 11:49:15;;;;;;;;;;;18.30;59.00;;;;;;7323854;19;9232;-61
2023/12/09 11:51:44;;;;;;;;;;;18.30;59.10;;;;;;7323353;19;9209;-61
2023/12/09 11:54:13;;;;;;;;;;;18.30;59.00;;;;;;7324209;19;9673;-61
2023/12/09 11:56:42;;;;;;;;;;;18.20;59.10;;;;;;7323746;19;9363;-61
2023/12/09 11:59:12;;;;;;;;;;;18.20;59.10;;;;;;7323913;19;9289;-62
2023/12/09 12:01:45;;;;;;;;;;;18.20;59.10;;;;;;7322514;19;9476;-62
2023/12/09 12:04:14;;;;;;;;;;;18.20;59.10;;;;;;7323899;19;9249;-61
2023/12/09 12:06:43;;;;;;;;;;;18.10;59.20;;;;;;7322290;19;9469;-62
2023/12/09 12:09:13;;;;;;;;;;;18.10;59.20;;;;;;7324138;19;9414;-62
2023/12/09 12:11:42;;;;;;;;;;;18.20;59.20;;;;;;7322476;19;9326;-62
2023/12/09 12:14:31;;;;;;;;;;;18.10;59.20;;;;;;7320782;19;9637;-62
2023/12/09 12:17:03;;;;;;;;;;;18.10;59.20;;;;;;7324304;19;9472;-62
2023/12/09 12:19:35;;;;;;;;;;;18.10;59.20;;;;;;7329116;19;9476;-61
2023/12/09 12:22:04;;;;;;;;;;;18.10;59.30;;;;;;7329633;19;9262;-62
2023/12/09 12:24:43;;;;;;;;;;;18.10;59.30;;;;;;7329254;19;9459;-62
2023/12/09 12:27:12;;;;;;;;;;;18.10;59.40;;;;;;7328967;19;9649;-62
2023/12/09 12:29:42;;;;;;;;;;;18.10;59.40;;;;;;7329239;19;9592;-61
2023/12/09 12:32:16;;;;;;;;;;;18.00;59.40;;;;;;7329435;19;9212;-62
2023/12/09 12:34:48;;;;;;;;;;;18.00;59.40;;;;;;7329924;19;9477;-61
2023/12/09 12:37:18;;;;;;;;;;;18.00;59.40;;;;;;7328337;19;9501;-62
2023/12/09 12:39:47;;;;;;;;;;;18.00;59.40;;;;;;7329313;19;9637;-61
2023/12/09 12:42:17;;;;;;;;;;;18.00;59.40;;;;;;7328279;19;10425;-61
2023/12/09 12:44:46;;;;;;;;;;;18.00;59.40;;;;;;7329063;19;9597;-61
2023/12/09 12:47:18;;;;;;;;;;;18.00;59.40;;;;;;7328237;19;9674;-61
2023/12/09 12:50:08;;;;;;;;;;;18.00;59.40;;;;;;7326904;19;9495;-61
2023/12/09 12:52:37;;;;;;;;;;;18.00;59.40;;;;;;7329015;19;9459;-61
2023/12/09 12:55:08;;;;;;;;;;;17.90;59.40;;;;;;7328186;19;9301;-61
2023/12/09 12:57:38;;;;;;;;;;;17.90;59.40;;;;;;7328556;19;9604;-61
2023/12/09 13:00:11;;;;;;;;;;;17.90;59.30;;;;;;7327713;19;9576;-61
2023/12/09 13:02:43;;;;;;;;;;;17.90;59.40;;;;;;7328166;19;10494;-60
2023/12/09 13:05:12;;;;;;;;;;;17.90;59.40;;;;;;7328335;19;9444;-61
2023/12/09 13:07:43;;;;;;;;;;;17.90;59.40;;;;;;7329025;19;9451;-61
2023/12/09 13:10:13;;;;;;;;;;;17.90;59.40;;;;;;7326885;19;9278;-61
2023/12/09 13:12:42;;;;;;;;;;;17.90;59.40;;;;;;7328733;19;10844;-61
2023/12/09 13:15:13;;;;;;;;;;;17.90;59.40;;;;;;7327296;19;9516;-61
2023/12/09 13:18:05;;;;;;;;;;;18.00;59.40;;;;;;7325647;19;9476;-61
2023/12/09 13:20:34;;;;;;;;;;;18.00;59.30;;;;;;7328132;19;9470;-61
2023/12/09 13:23:03;;;;;;;;;;;18.00;59.30;;;;;;7327843;19;9348;-61
2023/12/09 13:25:33;;;;;;;;;;;18.10;59.20;;;;;;7327748;19;9475;-63
2023/12/09 13:28:03;;;;;;;;;;;18.20;59.20;;;;;;7327397;19;9458;-60
2023/12/09 13:30:32;;;;;;;;;;;18.20;59.00;;;;;;7328357;19;9199;-60
2023/12/09 13:33:06;;;;;;;;;;;18.30;59.00;;;;;;7327891;19;9612;-61
2023/12/09 13:35:35;;;;;;;;;;;18.30;58.90;;;;;;7327169;19;9261;-61
2023/12/09 13:38:06;;;;;;;;;;;18.40;58.90;;;;;;7327749;19;9467;-61
2023/12/09 13:40:35;;;;;;;;;;;18.50;58.80;;;;;;7326618;19;9505;-61
2023/12/09 13:43:05;;;;;;;;;;;18.50;58.70;;;;;;7327604;19;9438;-61
2023/12/09 13:45:35;;;;;;;;;;;18.60;58.60;;;;;;7327048;19;9438;-62
2023/12/09 13:48:08;;;;;;;;;;;18.60;58.60;;;;;;7326663;19;9424;-61
2023/12/09 13:50:39;;;;;;;;;;;18.70;58.50;;;;;;7326637;19;10695;-61
2023/12/09 13:53:09;;;;;;;;;;;18.70;58.40;;;;;;7326552;19;10781;-61
2023/12/09 13:55:38;;;;;;;;;;;18.80;58.40;;;;;;7326936;19;9316;-61
2023/12/09 13:58:07;;;;;;;;;;;18.80;58.30;;;;;;7326856;19;9341;-61
2023/12/09 14:00:36;;;;;;;;;;;18.90;58.20;;;;;;7327410;19;9601;-61
2023/12/09 14:03:08;;;;;;;;;;;18.90;58.20;;;;;;7326229;19;9262;-61
2023/12/09 14:05:37;;;;;;;;;;;19.00;58.20;;;;;;7327207;19;9522;-61
2023/12/09 14:08:06;;;;;;;;;;;19.00;58.10;;;;;;7325952;19;9601;-61
2023/12/09 14:10:36;;;;;;;;;;;18.90;58.00;;;;;;7326984;19;9245;-61
2023/12/09 14:13:05;;;;;;;;;;;19.00;58.00;;;;;;7325953;19;9248;-61
2023/12/09 14:15:36;;;;;;;;;;;18.90;58.10;;;;;;7327084;19;9477;-61
2023/12/09 14:18:08;;;;;;;;;;;18.90;58.00;;;;;;7325969;19;9653;-61
2023/12/09 14:20:37;;;;;;;;;;;18.90;58.00;;;;;;7327069;19;9611;-61
2023/12/09 14:23:06;;;;;;;;;;;18.90;58.00;;;;;;7325062;19;9529;-61
2023/12/09 14:25:36;;;;;;;;;;;18.90;58.10;;;;;;7326495;19;9455;-61
2023/12/09 14:28:25;;;;;;;;;;;18.80;58.00;;;;;;7324514;19;9504;-61
2023/12/09 14:30:54;;;;;;;;;;;18.80;58.10;;;;;;7325823;19;9718;-61
2023/12/09 14:33:26;;;;;;;;;;;18.80;58.10;;;;;;7326509;19;9452;-61
2023/12/09 14:35:55;;;;;;;;;;;18.80;58.20;;;;;;7325694;19;9360;-61
2023/12/09 14:38:25;;;;;;;;;;;18.70;58.20;;;;;;7325636;19;10468;-61
2023/12/09 14:40:54;;;;;;;;;;;18.70;58.30;;;;;;7323669;19;9213;-61
2023/12/09 14:43:24;;;;;;;;;;;18.70;58.30;;;;;;7326034;19;10467;-61
2023/12/09 14:45:53;;;;;;;;;;;18.60;58.40;;;;;;7325400;19;9459;-61
2023/12/09 14:48:22;;;;;;;;;;;18.60;58.40;;;;;;7326541;19;9547;-61